Terminal Aerodrome Forecast
Issued by NWS

Home | Current Version | Previous Version | Text Only | Print | Product List | Glossary On
Versions: 1 2 3 4 5 6 7 8 9 10 11 12 13 14 15 16 17 18 19 20 21 22 23 24 25 26 27 28 29 30 31 32 33 34 35 36
000
FTUS43 KFGF 241120
TAFTVF
TAF
KTVF 241120Z 2412/2512 09016G24KT P6SM OVC015
     FM241500 10017G25KT P6SM OVC008
      TEMPO 2415/2417 4SM -RA OVC003
     FM241700 10016G24KT P6SM OVC020
     FM241900 10016G24KT 4SM BR OVC030
      TEMPO 2419/2421 1SM -RA BR OVC015
     FM242100 10011KT 3SM -RA BR OVC020
     FM250000 03009KT P6SM OVC008
     FM250200 36011KT P6SM OVC008
     FM251100 35011KT P6SM OVC008=

USA.gov is the U.S. government's official web portal to all federal, state and local government web resources and services.